Time;durP1;ratioP1;P1;durP2;ratioP2;P2;SDS_P1;SDS_P2;PMS_P1;PMS_P2;Temp;Humidity;BMP_temperature;BMP_pressure;BME280_temperature;BME280_humidity;BME280_pressure;Samples;Min_cycle;Max_cycle;Signal;HPM_P1;HPM_P2
2022/03/23 00:00:21;;;;;;;;;;;;;;;6.64;76.47;101361.53;4993432;28;19929;-62
2022/03/23 00:03:06;;;;;;;;;;;;;;;6.65;76.04;101365.94;4990949;28;20653;-63
2022/03/23 00:05:53;;;;;;;;;;;;;;;6.53;77.85;101359.53;4992059;28;19928;-61
2022/03/23 00:08:37;;;;;;;;;;;;;;;6.57;79.94;101362.25;4994120;28;19928;-61
2022/03/23 00:11:22;;;;;;;;;;;;;;;6.60;80.13;101362.31;4991680;28;19975;-67
2022/03/23 00:14:06;;;;;;;;;;;;;;;6.55;82.89;101361.34;4992076;28;19928;-62
2022/03/23 00:16:51;;;;;;;;;;;;;;;6.55;81.87;101358.69;4989641;28;19928;-61
2022/03/23 00:19:36;;;;;;;;;;;;;;;6.53;83.02;101352.50;4991392;28;19984;-61
2022/03/23 00:22:25;;;;;;;;;;;;;;;6.57;82.92;101359.59;4989304;28;20451;-64
2022/03/23 00:25:09;;;;;;;;;;;;;;;6.29;84.38;101354.59;4990661;28;19928;-62
2022/03/23 00:27:54;;;;;;;;;;;;;;;6.22;82.47;101351.81;4990290;28;19929;-61
2022/03/23 00:30:39;;;;;;;;;;;;;;;6.28;83.47;101352.81;4990609;28;19944;-68
2022/03/23 00:33:23;;;;;;;;;;;;;;;6.26;82.10;101349.28;4990056;28;19932;-61
2022/03/23 00:36:09;;;;;;;;;;;;;;;6.11;83.36;101345.41;4987807;28;19932;-60
2022/03/23 00:38:53;;;;;;;;;;;;;;;6.13;84.69;101347.19;4977720;28;20412;-61
2022/03/23 00:41:38;;;;;;;;;;;;;;;6.12;86.44;101350.69;4992250;28;19956;-61
2022/03/23 00:44:24;;;;;;;;;;;;;;;6.03;85.86;101347.88;4990704;28;19927;-62
2022/03/23 00:47:09;;;;;;;;;;;;;;;5.90;88.09;101339.63;4989750;28;19928;-61
2022/03/23 00:49:54;;;;;;;;;;;;;;;5.87;85.70;101342.19;4988255;28;20355;-66
2022/03/23 00:52:38;;;;;;;;;;;;;;;5.85;84.91;101342.16;4977885;28;19945;-62
2022/03/23 00:55:25;;;;;;;;;;;;;;;5.71;83.00;101340.91;4987390;28;20326;-62
2022/03/23 00:58:09;;;;;;;;;;;;;;;5.74;89.59;101334.84;4990858;28;19963;-61
2022/03/23 01:00:54;;;;;;;;;;;;;;;5.69;90.13;101328.56;4995078;28;19933;-61
2022/03/23 01:03:39;;;;;;;;;;;;;;;5.73;94.82;101341.81;4991756;28;19928;-60
2022/03/23 01:06:23;;;;;;;;;;;;;;;5.63;91.75;101339.84;4991710;28;20398;-61
2022/03/23 01:09:08;;;;;;;;;;;;;;;5.63;94.75;101336.31;4990779;28;19996;-66
2022/03/23 01:11:53;;;;;;;;;;;;;;;5.61;99.25;101330.13;4991393;28;19928;-62
2022/03/23 01:14:39;;;;;;;;;;;;;;;5.54;98.87;101334.31;4973578;28;20059;-62
2022/03/23 01:17:24;;;;;;;;;;;;;;;5.57;97.84;101325.66;4994546;28;19928;-62
2022/03/23 01:20:11;;;;;;;;;;;;;;;5.51;99.43;101328.09;4975602;28;19927;-62
2022/03/23 01:22:55;;;;;;;;;;;;;;;5.62;100.00;101332.78;4990269;28;20070;-61
2022/03/23 01:25:40;;;;;;;;;;;;;;;5.58;100.00;101325.66;4978063;28;19987;-62
2022/03/23 01:28:24;;;;;;;;;;;;;;;5.53;100.00;101321.16;4988104;28;20401;-68
2022/03/23 01:31:09;;;;;;;;;;;;;;;5.51;100.00;101322.84;5003016;28;19975;-61
2022/03/23 01:33:59;;;;;;;;;;;;;;;5.58;100.00;101316.88;4988345;28;19972;-61
2022/03/23 01:36:44;;;;;;;;;;;;;;;5.63;100.00;101310.00;4992423;28;19976;-61
2022/03/23 01:39:28;;;;;;;;;;;;;;;5.67;100.00;101318.00;4976675;28;19928;-62
2022/03/23 01:42:15;;;;;;;;;;;;;;;5.72;100.00;101313.72;4988671;28;19968;-65
2022/03/23 01:44:59;;;;;;;;;;;;;;;5.58;100.00;101309.00;4976779;28;19932;-62
2022/03/23 01:47:44;;;;;;;;;;;;;;;5.50;100.00;101305.28;4987074;28;19928;-61
2022/03/23 01:50:29;;;;;;;;;;;;;;;5.49;100.00;101308.78;4989687;28;19980;-63
2022/03/23 01:53:15;;;;;;;;;;;;;;;5.49;100.00;101304.38;4987510;28;19928;-61
2022/03/23 01:55:59;;;;;;;;;;;;;;;5.49;100.00;101298.25;4988333;28;19928;-61
2022/03/23 01:58:43;;;;;;;;;;;;;;;5.43;100.00;101303.34;4989573;28;20514;-61
2022/03/23 02:01:28;;;;;;;;;;;;;;;5.41;100.00;101307.69;4989001;28;19932;-68
2022/03/23 02:04:13;;;;;;;;;;;;;;;5.38;100.00;101305.00;4989873;28;19944;-61
2022/03/23 02:06:58;;;;;;;;;;;;;;;5.39;100.00;101302.41;4988148;28;19932;-60
2022/03/23 02:09:45;;;;;;;;;;;;;;;5.39;100.00;101297.13;4978500;28;20024;-62
2022/03/23 02:12:33;;;;;;;;;;;;;;;5.41;100.00;101300.69;4996020;28;20428;-63
2022/03/23 02:15:21;;;;;;;;;;;;;;;5.41;100.00;101303.31;4989879;28;19944;-62
2022/03/23 02:18:06;;;;;;;;;;;;;;;5.29;100.00;101297.75;4948477;28;19929;-62
2022/03/23 02:20:51;;;;;;;;;;;;;;;5.16;100.00;101298.28;4973183;28;19929;-62
2022/03/23 02:23:35;;;;;;;;;;;;;;;5.10;100.00;101302.50;4974844;28;19985;-62
2022/03/23 02:26:20;;;;;;;;;;;;;;;4.95;100.00;101308.25;4991218;28;19928;-61
2022/03/23 02:29:04;;;;;;;;;;;;;;;4.91;100.00;101299.38;4988488;28;19928;-62
2022/03/23 02:31:49;;;;;;;;;;;;;;;4.65;100.00;101303.03;4990736;28;20263;-61
2022/03/23 02:34:35;;;;;;;;;;;;;;;4.51;100.00;101300.88;4974728;28;20021;-63
2022/03/23 02:37:19;;;;;;;;;;;;;;;4.28;100.00;101297.56;4997959;28;20036;-60
2022/03/23 02:40:04;;;;;;;;;;;;;;;4.27;100.00;101298.41;4993684;28;20001;-66
2022/03/23 02:42:49;;;;;;;;;;;;;;;4.31;100.00;101295.03;4989581;28;20432;-62
2022/03/23 02:45:33;;;;;;;;;;;;;;;4.47;100.00;101296.34;4987333;28;19932;-62
2022/03/23 02:48:18;;;;;;;;;;;;;;;4.58;100.00;101287.03;4991506;28;20421;-61
2022/03/23 02:51:02;;;;;;;;;;;;;;;4.68;100.00;101281.22;4993048;28;20440;-61
2022/03/23 03:03:22;;;;;;;;;;;;;;;4.92;100.00;101288.00;4992657;28;19972;-63
2022/03/23 03:06:06;;;;;;;;;;;;;;;4.95;100.00;101284.59;4995212;28;19929;-61
2022/03/23 03:08:51;;;;;;;;;;;;;;;5.01;100.00;101287.38;5004521;28;19928;-71
2022/03/23 03:11:36;;;;;;;;;;;;;;;5.08;100.00;101284.06;5005518;28;20349;-61
2022/03/23 03:14:20;;;;;;;;;;;;;;;5.10;100.00;101282.34;4990331;28;19928;-60
2022/03/23 03:17:05;;;;;;;;;;;;;;;5.00;100.00;101285.59;4992576;28;20076;-63
2022/03/23 03:19:50;;;;;;;;;;;;;;;4.89;100.00;101281.78;4989750;28;19980;-62
2022/03/23 03:22:35;;;;;;;;;;;;;;;4.88;100.00;101282.66;4991733;28;19933;-63
2022/03/23 03:25:21;;;;;;;;;;;;;;;4.76;100.00;101279.69;4962986;28;19928;-61
2022/03/23 03:28:06;;;;;;;;;;;;;;;4.79;100.00;101285.03;4976471;28;19928;-66
2022/03/23 03:30:51;;;;;;;;;;;;;;;4.81;100.00;101285.94;4990789;28;20420;-60
2022/03/23 03:33:35;;;;;;;;;;;;;;;4.85;100.00;101279.94;4990550;28;20348;-60
2022/03/23 03:36:20;;;;;;;;;;;;;;;4.78;100.00;101272.72;4995447;28;19929;-62
2022/03/23 03:39:04;;;;;;;;;;;;;;;4.64;100.00;101274.09;4990807;28;19928;-66
2022/03/23 03:41:49;;;;;;;;;;;;;;;4.59;100.00;101278.34;4991763;28;19940;-64
2022/03/23 03:44:33;;;;;;;;;;;;;;;4.61;100.00;101272.28;4988931;28;19928;-62
2022/03/23 03:47:18;;;;;;;;;;;;;;;4.69;100.00;101273.38;4989986;28;20011;-72
2022/03/23 03:50:03;;;;;;;;;;;;;;;4.78;100.00;101264.84;4978535;28;19933;-60
2022/03/23 03:52:47;;;;;;;;;;;;;;;4.81;100.00;101268.47;5001393;28;20265;-62
2022/03/23 03:55:32;;;;;;;;;;;;;;;4.80;100.00;101271.91;4992511;28;19928;-62
2022/03/23 03:58:17;;;;;;;;;;;;;;;4.84;100.00;101267.66;4990321;28;19984;-61
2022/03/23 04:01:02;;;;;;;;;;;;;;;4.87;100.00;101260.72;4990681;28;19929;-64
2022/03/23 04:03:48;;;;;;;;;;;;;;;4.87;100.00;101273.00;4976448;28;20349;-63
2022/03/23 04:06:32;;;;;;;;;;;;;;;4.71;100.00;101265.53;4991830;28;19928;-67
2022/03/23 04:09:17;;;;;;;;;;;;;;;4.63;100.00;101260.06;4993640;28;19929;-63
2022/03/23 04:12:02;;;;;;;;;;;;;;;4.67;100.00;101261.06;4988004;28;19928;-63
2022/03/23 04:14:47;;;;;;;;;;;;;;;4.69;100.00;101261.97;4976809;28;19973;-62
2022/03/23 04:17:32;;;;;;;;;;;;;;;4.79;100.00;101262.25;5003355;28;20016;-62
2022/03/23 04:20:16;;;;;;;;;;;;;;;4.79;100.00;101258.75;4993545;28;19971;-62
2022/03/23 04:23:00;;;;;;;;;;;;;;;4.67;100.00;101259.31;4990978;28;20416;-62
2022/03/23 04:25:45;;;;;;;;;;;;;;;4.57;100.00;101249.41;4991511;28;19945;-62
2022/03/23 04:28:29;;;;;;;;;;;;;;;4.64;100.00;101253.94;4990565;28;20352;-63
2022/03/23 04:31:14;;;;;;;;;;;;;;;4.66;99.86;101257.53;4961083;28;20085;-67
2022/03/23 04:33:58;;;;;;;;;;;;;;;4.59;97.46;101254.69;4981028;28;20301;-60
2022/03/23 04:36:43;;;;;;;;;;;;;;;4.72;97.95;101257.69;4991687;28;19976;-61
2022/03/23 04:39:27;;;;;;;;;;;;;;;4.76;95.09;101256.03;4992025;28;19928;-62
2022/03/23 04:42:13;;;;;;;;;;;;;;;4.77;95.07;101249.94;4990733;28;20224;-62
2022/03/23 04:44:59;;;;;;;;;;;;;;;4.89;92.92;101250.25;4962627;28;19987;-61
2022/03/23 04:47:44;;;;;;;;;;;;;;;4.92;91.43;101251.22;4988878;28;19929;-63
2022/03/23 04:50:30;;;;;;;;;;;;;;;5.00;91.46;101251.44;4972284;28;20007;-66
2022/03/23 04:53:15;;;;;;;;;;;;;;;5.08;90.33;101256.00;4988058;28;19928;-64
2022/03/23 04:56:00;;;;;;;;;;;;;;;5.09;88.93;101254.28;4986413;28;19976;-63
2022/03/23 04:58:44;;;;;;;;;;;;;;;5.18;88.01;101254.50;4987782;28;19929;-63
2022/03/23 05:01:29;;;;;;;;;;;;;;;5.39;88.08;101252.44;4992208;28;19932;-63
2022/03/23 05:04:13;;;;;;;;;;;;;;;5.58;86.48;101264.28;4990150;28;19928;-62
2022/03/23 05:06:58;;;;;;;;;;;;;;;5.66;85.18;101253.06;4989996;28;20036;-61
2022/03/23 05:09:42;;;;;;;;;;;;;;;5.61;83.49;101251.19;4988850;28;19984;-67
2022/03/23 05:12:27;;;;;;;;;;;;;;;5.57;86.75;101255.47;4997275;28;20397;-63
2022/03/23 05:15:11;;;;;;;;;;;;;;;5.56;87.62;101255.44;4988289;28;19928;-63
2022/03/23 05:17:56;;;;;;;;;;;;;;;5.75;90.41;101249.75;4961691;28;19928;-62
2022/03/23 05:20:40;;;;;;;;;;;;;;;5.76;88.02;101248.88;4989079;28;19928;-63
2022/03/23 05:23:25;;;;;;;;;;;;;;;5.80;89.93;101243.75;4990970;28;19940;-65
2022/03/23 05:26:09;;;;;;;;;;;;;;;5.79;88.83;101249.88;4991434;28;19976;-62
2022/03/23 05:28:54;;;;;;;;;;;;;;;5.45;93.20;101217.50;5002496;28;20011;-68
2022/03/23 05:31:38;;;;;;;;;;;;;;;5.57;93.42;101249.34;4990015;28;19928;-64
2022/03/23 05:34:23;;;;;;;;;;;;;;;5.57;94.20;101238.81;4987066;28;20305;-62
2022/03/23 05:37:07;;;;;;;;;;;;;;;5.65;92.21;101242.53;4989212;28;20009;-62
2022/03/23 05:39:52;;;;;;;;;;;;;;;5.75;92.04;101234.88;4988233;28;19929;-62
2022/03/23 05:42:37;;;;;;;;;;;;;;;5.88;91.16;101234.31;4961727;28;20021;-63
2022/03/23 05:45:21;;;;;;;;;;;;;;;5.90;88.29;101232.63;4993210;28;20376;-62
2022/03/23 05:48:05;;;;;;;;;;;;;;;5.98;87.81;101240.66;4990637;28;19934;-62
2022/03/23 05:50:50;;;;;;;;;;;;;;;6.08;87.77;101240.88;4989028;28;19979;-63
2022/03/23 05:53:36;;;;;;;;;;;;;;;6.15;89.78;101231.38;4986701;28;20009;-69
2022/03/23 05:56:21;;;;;;;;;;;;;;;6.18;87.87;101245.50;4991927;28;20016;-62
2022/03/23 05:59:05;;;;;;;;;;;;;;;6.39;88.56;101238.03;4973736;28;19984;-66
2022/03/23 06:01:50;;;;;;;;;;;;;;;6.61;86.75;101240.22;4994287;28;20020;-62
2022/03/23 06:04:34;;;;;;;;;;;;;;;6.56;84.94;101233.97;4989528;28;19929;-62
2022/03/23 06:07:18;;;;;;;;;;;;;;;6.54;84.12;101240.09;4991084;28;19932;-61
2022/03/23 06:10:05;;;;;;;;;;;;;;;6.56;84.50;101231.34;4988480;28;19928;-62
2022/03/23 06:12:49;;;;;;;;;;;;;;;6.51;83.31;101227.75;4987342;28;20032;-69
2022/03/23 06:15:34;;;;;;;;;;;;;;;6.58;82.40;101227.00;4988276;28;20346;-60
2022/03/23 06:18:18;;;;;;;;;;;;;;;6.66;82.80;101224.50;4986544;28;19943;-61
2022/03/23 06:21:03;;;;;;;;;;;;;;;6.75;83.79;101222.94;4992947;28;19928;-64
2022/03/23 06:23:48;;;;;;;;;;;;;;;6.83;82.00;101223.97;4974534;28;20637;-62
2022/03/23 06:26:33;;;;;;;;;;;;;;;6.92;81.42;101224.13;4988531;28;19928;-62
2022/03/23 06:29:18;;;;;;;;;;;;;;;7.10;80.24;101229.72;4990965;28;19933;-61
2022/03/23 06:32:03;;;;;;;;;;;;;;;7.19;78.10;101219.31;4993501;28;19979;-66
2022/03/23 06:34:48;;;;;;;;;;;;;;;7.21;78.12;101225.53;4991880;28;20386;-61
2022/03/23 06:37:33;;;;;;;;;;;;;;;7.19;78.67;101226.34;4991442;28;20027;-62
2022/03/23 06:40:18;;;;;;;;;;;;;;;7.39;77.79;101223.16;4996362;28;19927;-63
2022/03/23 06:43:03;;;;;;;;;;;;;;;7.49;77.26;101214.53;4979428;28;19932;-75
2022/03/23 06:45:48;;;;;;;;;;;;;;;7.64;78.54;101224.44;4994678;28;19929;-73
2022/03/23 06:48:32;;;;;;;;;;;;;;;7.78;77.75;101218.50;4978882;28;19987;-67
2022/03/23 06:51:17;;;;;;;;;;;;;;;7.89;76.50;101216.91;4991159;28;19976;-72
2022/03/23 06:54:01;;;;;;;;;;;;;;;8.06;76.97;101209.16;4993390;28;19971;-62
2022/03/23 06:56:50;;;;;;;;;;;;;;;8.45;73.08;101212.34;4990739;28;19929;-60
2022/03/23 06:59:35;;;;;;;;;;;;;;;9.16;69.11;101217.50;4980349;28;19927;-64
2022/03/23 07:02:21;;;;;;;;;;;;;;;9.88;63.89;101210.97;4964493;28;19929;-60
2022/03/23 07:05:06;;;;;;;;;;;;;;;10.62;59.70;101201.56;4992338;28;19929;-67
2022/03/23 07:10:53;;;;;;;;;;;;;;;11.76;52.53;101193.69;5005222;28;19933;-62
2022/03/23 07:13:37;;;;;;;;;;;;;;;12.37;50.25;101200.53;4993709;28;19989;-62
2022/03/23 07:16:22;;;;;;;;;;;;;;;12.73;47.52;101200.34;4992364;28;19928;-62
2022/03/23 07:19:06;;;;;;;;;;;;;;;12.91;47.92;101200.25;4990393;28;20306;-65
2022/03/23 07:21:51;;;;;;;;;;;;;;;13.67;46.65;101189.00;4977416;28;19928;-63
2022/03/23 07:24:36;;;;;;;;;;;;;;;14.08;43.31;101190.31;5002973;28;19929;-62
2022/03/23 07:27:24;;;;;;;;;;;;;;;14.70;40.65;101198.44;4993931;28;19979;-63
2022/03/23 07:30:08;;;;;;;;;;;;;;;14.96;38.94;101191.84;4993975;28;20650;-64
2022/03/23 07:32:54;;;;;;;;;;;;;;;15.53;37.61;101187.34;4992908;28;19928;-62
2022/03/23 07:35:44;;;;;;;;;;;;;;;15.86;36.77;101192.97;4993534;28;19930;-62
2022/03/23 07:38:28;;;;;;;;;;;;;;;16.65;35.32;101195.81;5002889;28;19971;-63
2022/03/23 07:41:13;;;;;;;;;;;;;;;17.50;33.06;101183.97;4993335;28;19928;-62
2022/03/23 07:43:57;;;;;;;;;;;;;;;18.84;32.01;101189.09;4991594;28;19929;-63
2022/03/23 07:46:41;;;;;;;;;;;;;;;19.75;28.69;101192.34;4993181;28;19928;-62
2022/03/23 07:49:26;;;;;;;;;;;;;;;20.26;27.02;101190.53;4993911;28;20011;-63
2022/03/23 07:52:10;;;;;;;;;;;;;;;21.17;26.84;101186.06;4990932;28;20031;-68
2022/03/23 07:54:55;;;;;;;;;;;;;;;21.37;26.78;101186.97;4978738;28;19929;-62
2022/03/23 07:57:40;;;;;;;;;;;;;;;21.45;27.01;101183.97;4989502;28;20454;-62
2022/03/23 08:00:25;;;;;;;;;;;;;;;21.68;27.12;101182.03;4976484;28;19928;-63
2022/03/23 08:03:13;;;;;;;;;;;;;;;21.84;24.13;101185.88;4990605;28;19981;-63
2022/03/23 08:05:57;;;;;;;;;;;;;;;22.18;25.45;101182.56;4991657;28;20301;-63
2022/03/23 08:08:42;;;;;;;;;;;;;;;22.79;25.27;101173.41;4992108;28;19932;-64
2022/03/23 08:11:26;;;;;;;;;;;;;;;23.08;22.48;101174.69;4975801;28;19928;-67
2022/03/23 08:14:11;;;;;;;;;;;;;;;22.50;23.80;101171.19;4993440;28;19927;-63
2022/03/23 08:16:55;;;;;;;;;;;;;;;22.76;21.94;101167.25;4989899;28;19995;-62
2022/03/23 08:19:40;;;;;;;;;;;;;;;23.63;20.85;101165.59;5004220;28;20425;-64
2022/03/23 08:22:24;;;;;;;;;;;;;;;23.95;20.67;101157.59;4990481;28;19968;-64
2022/03/23 08:25:09;;;;;;;;;;;;;;;24.46;21.82;101154.78;4992227;28;19972;-62
2022/03/23 08:27:54;;;;;;;;;;;;;;;24.29;21.90;101168.38;4990971;28;20505;-64
2022/03/23 08:30:40;;;;;;;;;;;;;;;23.89;22.95;101144.31;4975809;28;20353;-68
2022/03/23 08:33:26;;;;;;;;;;;;;;;24.01;22.42;101149.13;4991261;28;20401;-63
2022/03/23 08:36:11;;;;;;;;;;;;;;;24.11;21.26;101144.97;4973809;28;20025;-64
2022/03/23 08:38:55;;;;;;;;;;;;;;;24.03;21.92;101143.63;4992027;28;19928;-64
2022/03/23 08:41:40;;;;;;;;;;;;;;;24.07;20.53;101147.91;4989990;28;20047;-63
2022/03/23 08:44:25;;;;;;;;;;;;;;;24.33;20.50;101147.41;4989414;28;19967;-63
2022/03/23 08:47:10;;;;;;;;;;;;;;;24.65;19.98;101147.41;5004899;28;19929;-62
2022/03/23 08:49:56;;;;;;;;;;;;;;;25.14;19.91;101135.50;4991436;28;20412;-68
2022/03/23 08:52:41;;;;;;;;;;;;;;;25.18;20.37;101119.91;4975619;28;19979;-64
2022/03/23 08:55:26;;;;;;;;;;;;;;;24.84;19.87;101123.69;4973627;28;20452;-64
2022/03/23 08:58:11;;;;;;;;;;;;;;;25.83;18.90;101134.06;4992193;28;19928;-67
2022/03/23 09:00:55;;;;;;;;;;;;;;;26.02;18.14;101128.38;4989778;28;20120;-63
2022/03/23 09:03:40;;;;;;;;;;;;;;;26.77;18.14;101122.72;4990497;28;19988;-64
2022/03/23 09:06:24;;;;;;;;;;;;;;;26.82;17.86;101117.81;4993035;28;20031;-63
2022/03/23 09:09:09;;;;;;;;;;;;;;;27.32;17.24;101121.69;4989576;28;20357;-68
2022/03/23 09:11:53;;;;;;;;;;;;;;;27.62;16.30;101116.88;4992515;28;19929;-64
2022/03/23 09:14:39;;;;;;;;;;;;;;;27.90;16.61;101124.03;4987886;28;20421;-64
2022/03/23 09:17:24;;;;;;;;;;;;;;;27.59;16.29;101116.19;4977482;28;20404;-63
2022/03/23 09:20:10;;;;;;;;;;;;;;;27.69;15.53;101112.72;4993332;28;20141;-63
2022/03/23 09:22:56;;;;;;;;;;;;;;;28.27;15.61;101113.16;4990711;28;19945;-65
2022/03/23 09:25:40;;;;;;;;;;;;;;;28.31;15.53;101101.03;4980953;28;20398;-64
2022/03/23 09:28:25;;;;;;;;;;;;;;;28.46;16.04;101097.25;4989041;28;19944;-67
2022/03/23 09:31:10;;;;;;;;;;;;;;;28.98;15.41;101096.97;4989260;28;19932;-64
2022/03/23 09:33:55;;;;;;;;;;;;;;;28.85;14.08;101099.78;4973630;28;20409;-64
2022/03/23 09:39:42;;;;;;;;;;;;;;;28.77;15.36;101074.88;4990017;28;20428;-64
2022/03/23 09:42:27;;;;;;;;;;;;;;;29.43;13.90;101085.34;4987644;28;20266;-63
2022/03/23 09:45:16;;;;;;;;;;;;;;;29.44;14.52;101089.81;5002637;28;19944;-64
2022/03/23 09:48:02;;;;;;;;;;;;;;;29.54;13.86;101082.63;4977530;28;19953;-64
2022/03/23 09:50:53;;;;;;;;;;;;;;;28.61;15.66;101076.13;4989602;28;19968;-64
2022/03/23 09:53:38;;;;;;;;;;;;;;;27.46;15.85;101071.69;4988602;28;20405;-62
2022/03/23 09:56:22;;;;;;;;;;;;;;;27.62;15.63;101073.28;4972681;28;19967;-65
2022/03/23 09:59:07;;;;;;;;;;;;;;;28.32;14.32;101067.28;4991197;28;20293;-65
2022/03/23 10:02:01;;;;;;;;;;;;;;;29.85;12.89;101062.00;4989452;28;20172;-64
2022/03/23 10:05:04;;;;;;;;;;;;;;;30.46;12.83;101054.25;4988449;28;19928;-70
2022/03/23 10:07:52;;;;;;;;;;;;;;;30.34;13.30;101059.84;4990909;28;19968;-63
2022/03/23 10:10:55;;;;;;;;;;;;;;;30.93;11.99;101051.19;5001729;28;20337;-63
2022/03/23 10:13:57;;;;;;;;;;;;;;;30.89;12.49;101049.72;4988928;28;20028;-64
2022/03/23 10:16:41;;;;;;;;;;;;;;;29.53;12.96;101035.28;4987974;28;19976;-64
2022/03/23 10:19:26;;;;;;;;;;;;;;;29.93;14.17;101035.75;4989612;28;20032;-64
2022/03/23 10:22:12;;;;;;;;;;;;;;;29.96;14.19;101031.91;4988954;28;19932;-64
2022/03/23 10:25:06;;;;;;;;;;;;;;;29.19;13.89;101033.41;4988357;28;19928;-64
2022/03/23 10:27:51;;;;;;;;;;;;;;;29.09;14.52;101013.28;4991676;28;20024;-66
2022/03/23 10:30:36;;;;;;;;;;;;;;;28.91;14.29;101019.22;4990617;28;19983;-64
2022/03/23 10:33:25;;;;;;;;;;;;;;;28.42;13.30;101004.75;4991717;28;19929;-66
2022/03/23 10:36:11;;;;;;;;;;;;;;;28.78;14.27;101000.16;4960512;28;20252;-64
2022/03/23 10:39:00;;;;;;;;;;;;;;;29.02;13.01;101000.19;4975830;28;19968;-69
2022/03/23 10:41:55;;;;;;;;;;;;;;;28.69;14.39;101003.59;4991121;28;19928;-62
2022/03/23 10:44:40;;;;;;;;;;;;;;;29.35;13.25;100992.97;4990710;28;19937;-65
2022/03/23 10:47:26;;;;;;;;;;;;;;;29.67;13.72;100994.06;4990856;28;19929;-63
2022/03/23 10:50:18;;;;;;;;;;;;;;;29.66;13.55;100999.66;4975781;28;20060;-62
2022/03/23 10:53:05;;;;;;;;;;;;;;;28.86;12.75;100980.44;4987435;28;19928;-64
2022/03/23 10:55:49;;;;;;;;;;;;;;;28.77;12.46;100983.88;4975107;28;20409;-64
2022/03/23 10:58:35;;;;;;;;;;;;;;;28.61;13.90;100984.19;4973799;28;20025;-62
2022/03/23 11:01:20;;;;;;;;;;;;;;;29.17;12.86;100972.56;4989230;28;20619;-63
2022/03/23 11:04:08;;;;;;;;;;;;;;;30.29;12.94;100975.34;4982028;28;20033;-64
2022/03/23 11:06:53;;;;;;;;;;;;;;;29.05;12.89;100958.97;4950342;28;19933;-63
2022/03/23 11:16:02;;;;;;;;;;;;;;;26.18;14.72;100949.69;4988779;28;20009;-65
2022/03/23 11:18:47;;;;;;;;;;;;;;;25.94;14.70;100937.69;4989815;28;20017;-72
2022/03/23 11:21:31;;;;;;;;;;;;;;;26.16;14.42;100939.88;4997429;28;19992;-71
2022/03/23 11:24:16;;;;;;;;;;;;;;;25.77;15.24;100932.44;4972859;28;19944;-63
2022/03/23 11:27:00;;;;;;;;;;;;;;;25.92;14.78;100931.47;4991907;28;19928;-64
2022/03/23 11:29:48;;;;;;;;;;;;;;;25.20;15.41;100927.91;4990567;28;19928;-63
2022/03/23 11:32:39;;;;;;;;;;;;;;;25.52;15.41;100930.38;4976430;28;20412;-62
2022/03/23 11:35:26;;;;;;;;;;;;;;;25.39;15.03;100925.81;4978297;28;19929;-64
2022/03/23 11:38:12;;;;;;;;;;;;;;;25.54;15.29;100917.59;4994280;28;19932;-65
2022/03/23 11:40:57;;;;;;;;;;;;;;;25.11;15.26;100914.88;4990816;28;20060;-71
2022/03/23 11:43:42;;;;;;;;;;;;;;;24.33;16.57;100911.50;4991465;28;19976;-64
2022/03/23 11:46:26;;;;;;;;;;;;;;;24.25;16.11;100913.78;4988428;28;19928;-65
2022/03/23 11:49:14;;;;;;;;;;;;;;;23.86;16.28;100892.50;4993488;28;19980;-64
2022/03/23 11:52:05;;;;;;;;;;;;;;;23.10;16.84;100896.75;4976222;28;19932;-63
2022/03/23 11:58:21;;;;;;;;;;;;;;;22.46;17.14;100904.56;4989051;28;19940;-64
2022/03/23 12:01:10;;;;;;;;;;;;;;;22.74;17.04;100894.13;4992914;28;19928;-64
2022/03/23 12:04:00;;;;;;;;;;;;;;;22.59;17.12;100894.94;4993145;28;20023;-64
2022/03/23 12:06:45;;;;;;;;;;;;;;;22.42;17.45;100858.88;4989465;28;19929;-62
2022/03/23 12:09:33;;;;;;;;;;;;;;;22.02;17.65;100886.16;4978221;28;19983;-63
2022/03/23 12:12:28;;;;;;;;;;;;;;;21.53;17.88;100884.88;4975840;28;20282;-65
2022/03/23 12:15:25;;;;;;;;;;;;;;;20.75;18.45;100873.16;4990501;28;19977;-70
2022/03/23 12:18:13;;;;;;;;;;;;;;;20.91;18.60;100876.03;4990313;28;19932;-65
2022/03/23 12:20:57;;;;;;;;;;;;;;;21.30;18.61;100871.56;4991531;28;20317;-64
2022/03/23 12:23:52;;;;;;;;;;;;;;;21.25;18.41;100862.81;4991151;28;19929;-63
2022/03/23 12:26:39;;;;;;;;;;;;;;;21.02;18.57;100854.91;4990573;28;19928;-65
2022/03/23 12:29:26;;;;;;;;;;;;;;;21.17;18.41;100856.91;4989701;28;19932;-64
2022/03/23 12:32:12;;;;;;;;;;;;;;;20.97;18.67;100847.00;4988326;28;19928;-63
2022/03/23 12:34:57;;;;;;;;;;;;;;;20.67;18.94;100848.34;4953263;28;19928;-65
2022/03/23 12:37:43;;;;;;;;;;;;;;;20.26;19.05;100848.38;4954588;28;19928;-68
2022/03/23 12:40:37;;;;;;;;;;;;;;;20.31;18.72;100839.16;4973331;28;19976;-65
2022/03/23 12:43:37;;;;;;;;;;;;;;;20.29;19.09;100842.88;4973572;28;19928;-66
2022/03/23 12:46:28;;;;;;;;;;;;;;;20.03;19.13;100826.88;4967260;28;19968;-65
2022/03/23 12:58:57;;;;;;;;;;;;;;;19.99;19.31;100815.38;4970197;28;19976;-65
2022/03/23 13:01:42;;;;;;;;;;;;;;;19.62;19.55;100780.13;4955528;28;19976;-66
2022/03/23 13:04:40;;;;;;;;;;;;;;;19.72;19.64;100813.81;4969165;28;20432;-75
2022/03/23 13:07:27;;;;;;;;;;;;;;;19.89;19.28;100805.06;4987665;28;19929;-64
2022/03/23 13:10:13;;;;;;;;;;;;;;;19.76;19.53;100798.41;4976428;28;19929;-63
2022/03/23 13:13:05;;;;;;;;;;;;;;;19.42;19.61;100801.56;4972428;28;20393;-68
2022/03/23 13:15:51;;;;;;;;;;;;;;;19.41;19.65;100790.84;4959731;28;20354;-65
2022/03/23 13:18:38;;;;;;;;;;;;;;;19.50;19.45;100790.53;4973359;28;19935;-64
2022/03/23 13:21:24;;;;;;;;;;;;;;;19.55;19.76;100793.91;4987814;28;19929;-64
2022/03/23 13:24:09;;;;;;;;;;;;;;;19.51;19.54;100782.38;4989895;28;19987;-64
2022/03/23 13:26:56;;;;;;;;;;;;;;;19.32;19.37;100780.47;4987632;28;19947;-72
2022/03/23 13:29:41;;;;;;;;;;;;;;;19.25;19.52;100778.97;4974273;28;19936;-64
2022/03/23 13:32:39;;;;;;;;;;;;;;;19.23;19.77;100770.06;4986885;28;19944;-63
2022/03/23 13:35:24;;;;;;;;;;;;;;;19.09;19.85;100767.00;4974108;28;20435;-70
2022/03/23 13:38:09;;;;;;;;;;;;;;;18.89;20.33;100759.72;4993192;28;20306;-63
2022/03/23 13:43:57;;;;;;;;;;;;;;;18.73;20.10;100755.84;4985221;28;19929;-71
2022/03/23 13:46:43;;;;;;;;;;;;;;;18.87;20.15;100758.03;4973976;28;20258;-64
2022/03/23 13:49:28;;;;;;;;;;;;;;;18.68;20.33;100757.84;4944878;28;19967;-64
2022/03/23 13:52:14;;;;;;;;;;;;;;;18.29;20.91;100753.88;4973798;28;20397;-64
2022/03/23 13:54:59;;;;;;;;;;;;;;;18.75;20.26;100745.91;4977234;28;20023;-65
2022/03/23 13:57:44;;;;;;;;;;;;;;;18.79;19.98;100744.00;4990951;28;19975;-68
2022/03/23 14:00:32;;;;;;;;;;;;;;;18.62;20.29;100747.31;4977485;28;19975;-66
2022/03/23 14:03:20;;;;;;;;;;;;;;;18.62;20.40;100741.09;4987039;28;19980;-67
2022/03/23 14:06:06;;;;;;;;;;;;;;;18.38;20.31;100741.94;4975076;28;19971;-66
2022/03/23 14:08:54;;;;;;;;;;;;;;;18.20;20.81;100734.53;4988894;28;19936;-65
2022/03/23 14:11:51;;;;;;;;;;;;;;;18.40;20.88;100732.94;4976045;28;19929;-63
2022/03/23 14:14:37;;;;;;;;;;;;;;;18.55;20.65;100735.03;4989022;28;19944;-66
2022/03/23 14:17:25;;;;;;;;;;;;;;;18.34;20.83;100725.09;4988322;28;19930;-67
2022/03/23 14:20:09;;;;;;;;;;;;;;;17.72;21.52;100734.41;4988329;28;19984;-66
2022/03/23 14:22:55;;;;;;;;;;;;;;;17.27;22.48;100723.38;4991460;28;19928;-64
2022/03/23 14:25:40;;;;;;;;;;;;;;;17.11;22.23;100726.56;4974157;28;20024;-71
2022/03/23 14:28:25;;;;;;;;;;;;;;;16.53;23.42;100719.41;4976794;28;19928;-64
2022/03/23 14:31:09;;;;;;;;;;;;;;;16.44;23.10;100708.97;4988005;28;19929;-65
2022/03/23 14:34:01;;;;;;;;;;;;;;;16.23;23.37;100703.31;4989729;28;20397;-65
2022/03/23 14:36:45;;;;;;;;;;;;;;;16.44;23.26;100705.41;4991463;28;19944;-63
2022/03/23 14:39:37;;;;;;;;;;;;;;;16.48;23.27;100707.06;4988065;28;19928;-70
2022/03/23 14:42:22;;;;;;;;;;;;;;;16.10;24.05;100702.78;4976451;28;20409;-65
2022/03/23 14:45:25;;;;;;;;;;;;;;;15.96;24.03;100702.28;4988271;28;19945;-64
2022/03/23 14:48:14;;;;;;;;;;;;;;;15.62;24.20;100700.53;4973464;28;19928;-66
2022/03/23 14:51:01;;;;;;;;;;;;;;;15.57;24.54;100695.31;4990795;28;20067;-65
2022/03/23 14:53:47;;;;;;;;;;;;;;;15.35;24.32;100687.88;4995023;28;19971;-65